Rio Tala, Argentina
Current Conditions -  °F | °C
As of 7:00 PM on Thursday 18 Dec 2014 (Local Time) from SADF Reporting Station
Few Clouds Few Clouds  
Wind Chill: 29°   Ceiling: Unl
Heat Index: 29°   Visibility: 6mi
Dew Point: 15°   Wind: 10mph
Humidity: 42%   Direction: 320°NW
Pressure: 29.71"   Gusts: NA
Location:  33.76°S, 59.65°W
Report Text: SADF 182200Z 32009KT 9999 FEW030TCU 29/15 Q1006
Loading
Personal Weather Stations






























Interactive Weather Map New forecast layout! Learn more

10-Day Weather Forecast

Advertisements
Track Severe Weather on mobile